Time;durP1;ratioP1;P1;durP2;ratioP2;P2;SDS_P1;SDS_P2;PMS_P1;PMS_P2;Temp;Humidity;BMP_temperature;BMP_pressure;BME280_temperature;BME280_humidity;BME280_pressure;Samples;Min_cycle;Max_cycle;Signal;HPM_P1;HPM_P2
2022/08/14 00:01:18;;;;;;;5.43;5.00;;;;;;;;;;5092932;28;20868;-77
2022/08/14 00:03:45;;;;;;;5.63;5.17;;;;;;;;;;5093046;28;20495;-78
2022/08/14 00:06:14;;;;;;;5.97;5.50;;;;;;;;;;5092755;28;20460;-78
2022/08/14 00:08:41;;;;;;;5.63;5.13;;;;;;;;;;5092817;28;20444;-77
2022/08/14 00:11:08;;;;;;;5.93;5.50;;;;;;;;;;5080099;28;20541;-77
2022/08/14 00:13:36;;;;;;;6.10;5.60;;;;;;;;;;5071862;28;20467;-78
2022/08/14 00:16:03;;;;;;;5.73;5.33;;;;;;;;;;5071887;28;20472;-77
2022/08/14 00:18:30;;;;;;;5.97;5.40;;;;;;;;;;5072014;28;20441;-78
2022/08/14 00:20:59;;;;;;;6.10;5.70;;;;;;;;;;5072217;28;20870;-77
2022/08/14 00:23:27;;;;;;;6.10;5.53;;;;;;;;;;5071966;28;20613;-78
2022/08/14 00:25:56;;;;;;;5.67;5.10;;;;;;;;;;5071592;28;20461;-77
2022/08/14 00:28:26;;;;;;;6.20;5.60;;;;;;;;;;5071999;28;20543;-77
2022/08/14 00:30:55;;;;;;;6.07;5.67;;;;;;;;;;5072317;28;20557;-77
2022/08/14 00:33:22;;;;;;;8.67;5.80;;;;;;;;;;5071289;28;20440;-77
2022/08/14 00:35:49;;;;;;;13.27;5.90;;;;;;;;;;5071597;28;20480;-77
2022/08/14 00:38:17;;;;;;;6.40;5.80;;;;;;;;;;5071355;28;20502;-77
2022/08/14 00:40:45;;;;;;;6.27;5.73;;;;;;;;;;5071202;28;21032;-77
2022/08/14 00:43:13;;;;;;;6.50;6.00;;;;;;;;;;5071256;28;20444;-78
2022/08/14 00:45:40;;;;;;;6.33;5.90;;;;;;;;;;5072408;28;20471;-78
2022/08/14 00:48:09;;;;;;;10.40;5.53;;;;;;;;;;5072236;28;20445;-77
2022/08/14 00:50:36;;;;;;;6.23;5.30;;;;;;;;;;5072319;28;20468;-77
2022/08/14 00:53:03;;;;;;;5.60;5.10;;;;;;;;;;5071550;28;20448;-78
2022/08/14 00:55:31;;;;;;;6.00;5.40;;;;;;;;;;5071371;28;20984;-77
2022/08/14 01:00:45;;;;;;;5.60;5.20;;;;;;;;;;5071743;28;20420;-77
2022/08/14 01:03:12;;;;;;;5.80;5.30;;;;;;;;;;5072291;28;20444;-78
2022/08/14 01:05:40;;;;;;;6.30;5.73;;;;;;;;;;5077103;28;20495;-77
2022/08/14 01:08:07;;;;;;;5.43;5.03;;;;;;;;;;5073295;28;20874;-77
2022/08/14 01:10:53;;;;;;;5.70;5.30;;;;;;;;;;5080466;28;20471;-77
2022/08/14 01:13:22;;;;;;;5.20;4.70;;;;;;;;;;5091893;28;20487;-77
2022/08/14 01:15:51;;;;;;;5.60;5.13;;;;;;;;;;5092023;28;20529;-77
2022/08/14 01:21:05;;;;;;;5.80;5.30;;;;;;;;;;5091714;28;20422;-77
2022/08/14 01:23:35;;;;;;;4.83;4.53;;;;;;;;;;5091262;28;20938;-77
2022/08/14 01:26:02;;;;;;;6.17;5.67;;;;;;;;;;5092196;28;20463;-78
2022/08/14 01:28:33;;;;;;;5.00;4.67;;;;;;;;;;5094543;28;20444;-77
2022/08/14 01:31:00;;;;;;;5.50;5.10;;;;;;;;;;5093049;28;20487;-77
2022/08/14 01:33:28;;;;;;;5.73;5.20;;;;;;;;;;5091264;28;21002;-77
2022/08/14 01:35:56;;;;;;;4.90;4.50;;;;;;;;;;5091685;28;20520;-77
2022/08/14 01:38:25;;;;;;;4.53;4.23;;;;;;;;;;5092128;28;20548;-76
2022/08/14 01:40:53;;;;;;;5.10;4.80;;;;;;;;;;5091125;28;21147;-77
2022/08/14 01:43:20;;;;;;;5.63;4.57;;;;;;;;;;5090723;28;20447;-78
2022/08/14 01:45:50;;;;;;;5.20;4.80;;;;;;;;;;5091086;28;20509;-78
2022/08/14 01:48:18;;;;;;;5.03;4.63;;;;;;;;;;5091381;28;20490;-77
2022/08/14 01:50:45;;;;;;;4.80;4.50;;;;;;;;;;5091109;28;20475;-77
2022/08/14 01:53:12;;;;;;;5.33;4.83;;;;;;;;;;5091016;28;20444;-77
2022/08/14 01:55:40;;;;;;;5.93;5.43;;;;;;;;;;5091310;28;20471;-77
2022/08/14 01:58:12;;;;;;;4.77;4.40;;;;;;;;;;5090519;28;20450;-77
2022/08/14 02:00:39;;;;;;;5.03;4.73;;;;;;;;;;5090534;28;20523;-78
2022/08/14 02:03:06;;;;;;;5.40;5.00;;;;;;;;;;5090465;28;20502;-77
2022/08/14 02:05:34;;;;;;;5.53;5.13;;;;;;;;;;5090336;28;20555;-77
2022/08/14 02:08:01;;;;;;;5.97;5.10;;;;;;;;;;5090421;28;20451;-77
2022/08/14 02:10:28;;;;;;;5.53;5.13;;;;;;;;;;5082324;28;20534;-77
2022/08/14 02:12:56;;;;;;;5.00;4.70;;;;;;;;;;5073748;28;20449;-77
2022/08/14 02:15:25;;;;;;;5.80;5.30;;;;;;;;;;5073966;28;20496;-78
2022/08/14 02:17:52;;;;;;;6.00;5.60;;;;;;;;;;5073972;28;20441;-76
2022/08/14 02:20:19;;;;;;;5.33;5.03;;;;;;;;;;5074039;28;20437;-77
2022/08/14 02:22:47;;;;;;;5.07;4.77;;;;;;;;;;5073844;28;20443;-77
2022/08/14 02:25:14;;;;;;;5.83;5.43;;;;;;;;;;5073875;28;20983;-78
2022/08/14 02:27:43;;;;;;;5.77;5.27;;;;;;;;;;5074100;28;20970;-77
2022/08/14 02:30:11;;;;;;;6.00;5.50;;;;;;;;;;5074039;28;20477;-77
2022/08/14 02:32:39;;;;;;;5.40;5.00;;;;;;;;;;5073927;28;20449;-77
2022/08/14 02:35:15;;;;;;;6.47;5.87;;;;;;;;;;5074159;28;20829;-77
2022/08/14 02:37:42;;;;;;;6.60;6.13;;;;;;;;;;5074063;28;20537;-77
2022/08/14 02:40:11;;;;;;;6.00;5.43;;;;;;;;;;5073899;28;20453;-77
2022/08/14 02:42:39;;;;;;;5.40;5.00;;;;;;;;;;5073860;28;20449;-77
2022/08/14 02:45:06;;;;;;;6.17;5.67;;;;;;;;;;5074449;28;20456;-77
2022/08/14 02:47:34;;;;;;;5.60;5.20;;;;;;;;;;5078078;28;20463;-77
2022/08/14 02:50:02;;;;;;;6.47;6.00;;;;;;;;;;5086280;28;20921;-78
2022/08/14 02:52:29;;;;;;;6.20;5.70;;;;;;;;;;5082821;28;20455;-77
2022/08/14 02:54:56;;;;;;;6.73;6.20;;;;;;;;;;5080129;28;20479;-78
2022/08/14 02:57:24;;;;;;;5.80;5.40;;;;;;;;;;5077910;28;20900;-76
2022/08/14 02:59:52;;;;;;;7.40;5.80;;;;;;;;;;5074021;28;20437;-77
2022/08/14 03:02:19;;;;;;;5.97;5.57;;;;;;;;;;5073771;28;20456;-76
2022/08/14 03:04:46;;;;;;;5.53;5.10;;;;;;;;;;5073403;28;20963;-77
2022/08/14 03:07:15;;;;;;;6.33;5.73;;;;;;;;;;5072815;28;20460;-77
2022/08/14 03:09:43;;;;;;;6.33;5.93;;;;;;;;;;5073635;28;20444;-77
2022/08/14 03:12:11;;;;;;;5.57;5.23;;;;;;;;;;5092416;28;20448;-77
2022/08/14 03:14:43;;;;;;;6.00;5.60;;;;;;;;;;5091987;28;20528;-78
2022/08/14 03:17:14;;;;;;;5.87;5.37;;;;;;;;;;5092576;28;20450;-77
2022/08/14 03:19:41;;;;;;;5.97;5.57;;;;;;;;;;5092742;28;20450;-78
2022/08/14 03:22:08;;;;;;;5.20;4.90;;;;;;;;;;5091819;28;20435;-77
2022/08/14 03:24:36;;;;;;;6.40;5.90;;;;;;;;;;5092161;28;20817;-77
2022/08/14 03:27:05;;;;;;;6.80;5.73;;;;;;;;;;5092768;28;20817;-77
2022/08/14 03:29:32;;;;;;;5.80;5.40;;;;;;;;;;5092171;28;20444;-76
2022/08/14 03:31:59;;;;;;;5.83;5.33;;;;;;;;;;5092051;28;20917;-77
2022/08/14 03:34:26;;;;;;;6.43;5.90;;;;;;;;;;5091701;28;20939;-76
2022/08/14 03:36:57;;;;;;;7.37;6.83;;;;;;;;;;5092360;28;20945;-77
2022/08/14 03:39:26;;;;;;;6.07;5.67;;;;;;;;;;5092157;28;20443;-77
2022/08/14 03:41:55;;;;;;;7.03;5.80;;;;;;;;;;5091418;28;20463;-76
2022/08/14 03:44:22;;;;;;;6.37;5.63;;;;;;;;;;5091822;28;20439;-78
2022/08/14 03:46:50;;;;;;;6.30;5.80;;;;;;;;;;5092041;28;20443;-78
2022/08/14 03:49:19;;;;;;;6.57;6.07;;;;;;;;;;5091875;28;20451;-78
2022/08/14 03:51:46;;;;;;;5.70;5.20;;;;;;;;;;5091413;28;20835;-77
2022/08/14 03:54:14;;;;;;;6.67;6.17;;;;;;;;;;5091229;28;20448;-77
2022/08/14 03:56:43;;;;;;;7.70;6.07;;;;;;;;;;5091707;28;21116;-78
2022/08/14 03:59:12;;;;;;;7.30;6.67;;;;;;;;;;5094507;28;20451;-76
2022/08/14 04:01:39;;;;;;;6.13;5.73;;;;;;;;;;5098628;28;20808;-77
2022/08/14 04:04:07;;;;;;;6.60;6.20;;;;;;;;;;5093594;28;20451;-76
2022/08/14 04:06:34;;;;;;;7.30;6.60;;;;;;;;;;5054956;28;1040244;-76
2022/08/14 04:09:01;;;;;;;7.50;6.77;;;;;;;;;;5092435;28;20219;-78
2022/08/14 04:11:29;;;;;;;6.57;6.07;;;;;;;;;;5093531;28;20472;-77
2022/08/14 04:13:56;;;;;;;7.23;6.53;;;;;;;;;;5096116;28;20436;-77
2022/08/14 04:16:24;;;;;;;6.93;6.37;;;;;;;;;;5092400;28;20459;-77
2022/08/14 04:18:52;;;;;;;8.60;5.97;;;;;;;;;;5092359;28;21008;-76
2022/08/14 04:21:21;;;;;;;9.53;6.30;;;;;;;;;;5092202;28;20517;-76
2022/08/14 04:23:48;;;;;;;6.63;6.23;;;;;;;;;;5092399;28;20455;-77
2022/08/14 04:26:17;;;;;;;6.50;6.10;;;;;;;;;;5092126;28;20935;-76
2022/08/14 04:28:45;;;;;;;7.47;6.80;;;;;;;;;;5092084;28;20440;-77
2022/08/14 04:31:12;;;;;;;6.53;5.93;;;;;;;;;;5092928;28;20503;-76
2022/08/14 04:33:41;;;;;;;6.43;6.00;;;;;;;;;;5094487;28;20505;-75
2022/08/14 04:36:09;;;;;;;6.80;6.20;;;;;;;;;;5095027;28;20464;-76
2022/08/14 04:44:13;;;;;;;6.20;5.73;;;;;;;;;;5091135;28;20431;-76
2022/08/14 04:48:11;;;;;;;6.07;5.67;;;;;;;;;;5091869;28;20895;-76
2022/08/14 04:49:28;;;;;;;6.47;5.90;;;;;;;;;;5091405;28;21004;-76
2022/08/14 04:51:55;;;;;;;5.60;5.30;;;;;;;;;;5091268;28;20479;-77
2022/08/14 04:54:23;;;;;;;7.83;5.87;;;;;;;;;;5091021;28;20530;-77
2022/08/14 04:56:50;;;;;;;6.23;5.83;;;;;;;;;;5090897;28;20444;-77
2022/08/14 04:59:17;;;;;;;5.60;5.10;;;;;;;;;;5091977;28;20505;-77
2022/08/14 05:01:44;;;;;;;7.30;5.53;;;;;;;;;;5091473;28;20919;-77
2022/08/14 05:04:12;;;;;;;5.40;5.10;;;;;;;;;;5091460;28;20997;-77
2022/08/14 05:06:40;;;;;;;5.70;5.30;;;;;;;;;;5091470;28;20563;-76
2022/08/14 05:09:07;;;;;;;6.10;5.70;;;;;;;;;;5091376;28;20420;-77
2022/08/14 05:11:35;;;;;;;6.37;5.93;;;;;;;;;;5073541;28;20881;-77
2022/08/14 05:14:02;;;;;;;6.93;6.30;;;;;;;;;;5070707;28;20449;-77
2022/08/14 05:16:31;;;;;;;6.60;6.00;;;;;;;;;;5070951;28;20935;-77
2022/08/14 05:18:58;;;;;;;6.90;6.40;;;;;;;;;;5079989;28;20452;-77
2022/08/14 05:21:27;;;;;;;6.57;6.10;;;;;;;;;;5072033;28;20486;-76
2022/08/14 05:23:56;;;;;;;6.03;5.63;;;;;;;;;;5077510;28;20440;-77
2022/08/14 05:26:23;;;;;;;6.13;5.63;;;;;;;;;;5087857;28;20480;-78
2022/08/14 05:28:50;;;;;;;5.67;5.27;;;;;;;;;;5071187;28;20433;-76
2022/08/14 05:31:17;;;;;;;6.07;5.67;;;;;;;;;;5080142;28;20483;-77
2022/08/14 05:33:45;;;;;;;6.83;6.20;;;;;;;;;;5091185;28;20788;-77
2022/08/14 05:36:13;;;;;;;5.50;5.10;;;;;;;;;;5091544;28;20546;-77
2022/08/14 05:38:41;;;;;;;5.67;5.17;;;;;;;;;;5091430;28;20922;-76
2022/08/14 05:41:11;;;;;;;5.87;5.40;;;;;;;;;;5090834;28;20478;-77
2022/08/14 05:43:39;;;;;;;5.47;5.10;;;;;;;;;;5090797;28;20447;-77
2022/08/14 05:46:06;;;;;;;6.47;5.87;;;;;;;;;;5090685;28;20983;-78
2022/08/14 05:48:33;;;;;;;6.17;5.67;;;;;;;;;;5090860;28;20447;-77
2022/08/14 05:51:00;;;;;;;5.77;5.30;;;;;;;;;;5091121;28;20545;-75
2022/08/14 05:53:27;;;;;;;5.63;5.23;;;;;;;;;;5091031;28;20440;-76
2022/08/14 05:55:55;;;;;;;6.27;5.77;;;;;;;;;;5088791;28;20463;-77
2022/08/14 05:58:24;;;;;;;6.47;5.93;;;;;;;;;;5091032;28;20497;-77
2022/08/14 06:00:51;;;;;;;7.00;5.50;;;;;;;;;;5091095;28;20448;-76
2022/08/14 06:03:19;;;;;;;6.27;5.87;;;;;;;;;;5090597;28;20495;-76
2022/08/14 06:05:48;;;;;;;6.30;5.60;;;;;;;;;;5090606;28;20468;-76
2022/08/14 06:08:16;;;;;;;9.07;5.97;;;;;;;;;;5090822;28;20460;-76
2022/08/14 06:10:43;;;;;;;6.30;5.80;;;;;;;;;;5090685;28;20440;-77
2022/08/14 06:13:11;;;;;;;5.53;5.13;;;;;;;;;;5090364;28;20452;-77
2022/08/14 06:15:40;;;;;;;6.20;5.70;;;;;;;;;;5090456;28;20520;-76
2022/08/14 06:18:07;;;;;;;6.57;5.93;;;;;;;;;;5090305;28;20955;-76
2022/08/14 06:20:34;;;;;;;5.57;5.17;;;;;;;;;;5090400;28;20443;-78
2022/08/14 06:23:01;;;;;;;5.90;5.33;;;;;;;;;;5090392;28;20444;-77
2022/08/14 06:25:28;;;;;;;5.87;5.37;;;;;;;;;;5090597;28;20459;-77
2022/08/14 06:27:55;;;;;;;6.23;5.67;;;;;;;;;;5095797;28;20435;-77
2022/08/14 06:30:23;;;;;;;11.73;10.80;;;;;;;;;;5099041;28;20488;-77
2022/08/14 06:32:51;;;;;;;5.80;5.30;;;;;;;;;;5098180;28;20665;-76
2022/08/14 06:35:19;;;;;;;5.50;5.10;;;;;;;;;;5093264;28;20489;-77
2022/08/14 06:37:48;;;;;;;5.43;5.03;;;;;;;;;;5097749;28;20440;-76
2022/08/14 06:40:17;;;;;;;6.10;5.80;;;;;;;;;;5096671;28;20507;-77
2022/08/14 06:42:44;;;;;;;5.57;5.10;;;;;;;;;;5089705;28;20475;-77
2022/08/14 06:45:11;;;;;;;5.70;5.40;;;;;;;;;;5089718;28;20583;-76
2022/08/14 06:47:42;;;;;;;5.87;5.47;;;;;;;;;;5090047;28;20440;-77
2022/08/14 06:50:12;;;;;;;6.00;5.60;;;;;;;;;;5090105;28;20509;-76
2022/08/14 06:52:39;;;;;;;10.17;5.57;;;;;;;;;;5085413;28;20486;-77
2022/08/14 06:55:07;;;;;;;4.90;4.60;;;;;;;;;;5078802;28;20999;-77
2022/08/14 06:57:37;;;;;;;5.50;5.20;;;;;;;;;;5091588;28;20458;-77
2022/08/14 07:00:06;;;;;;;4.90;4.60;;;;;;;;;;5094148;28;20492;-79
2022/08/14 07:08:05;;;;;;;5.23;4.93;;;;;;;;;;5093883;28;20952;-77
2022/08/14 07:10:32;;;;;;;5.00;4.63;;;;;;;;;;5093620;28;20443;-77
2022/08/14 07:12:59;;;;;;;5.23;4.90;;;;;;;;;;5093169;28;20482;-76
2022/08/14 07:15:27;;;;;;;5.67;5.17;;;;;;;;;;5093815;28;20521;-77
2022/08/14 07:17:54;;;;;;;5.53;5.10;;;;;;;;;;5095943;28;20444;-77
2022/08/14 07:20:22;;;;;;;5.60;5.10;;;;;;;;;;5095386;28;20934;-75
2022/08/14 07:22:49;;;;;;;5.67;5.17;;;;;;;;;;5094024;28;21134;-77
2022/08/14 07:25:16;;;;;;;5.67;5.10;;;;;;;;;;5095964;28;21010;-75
2022/08/14 07:27:44;;;;;;;5.30;4.90;;;;;;;;;;5094989;28;20455;-77
2022/08/14 07:30:12;;;;;;;5.07;4.67;;;;;;;;;;5094235;28;20943;-77
2022/08/14 07:32:39;;;;;;;4.97;4.67;;;;;;;;;;5093882;28;20479;-76
2022/08/14 07:35:06;;;;;;;5.43;4.93;;;;;;;;;;5094295;28;20464;-78
2022/08/14 07:37:34;;;;;;;12.63;11.63;;;;;;;;;;5094339;28;20451;-77
2022/08/14 07:40:02;;;;;;;6.10;5.70;;;;;;;;;;5097050;28;20452;-76
2022/08/14 07:42:30;;;;;;;5.37;5.00;;;;;;;;;;5097306;28;21223;-76
2022/08/14 07:44:57;;;;;;;4.10;3.90;;;;;;;;;;5094822;28;20967;-77
2022/08/14 07:47:24;;;;;;;4.57;4.17;;;;;;;;;;5094728;28;20485;-76
2022/08/14 07:49:55;;;;;;;4.47;4.20;;;;;;;;;;5094121;28;20428;-76
2022/08/14 07:52:22;;;;;;;4.70;4.30;;;;;;;;;;5094109;28;20486;-76
2022/08/14 07:54:50;;;;;;;4.47;4.10;;;;;;;;;;5092980;28;20468;-76
2022/08/14 07:57:17;;;;;;;4.30;4.00;;;;;;;;;;5094306;28;20447;-76
2022/08/14 07:59:44;;;;;;;4.73;4.37;;;;;;;;;;5096117;28;20451;-76
2022/08/14 08:02:12;;;;;;;5.37;4.23;;;;;;;;;;5109695;28;20427;-75
2022/08/14 08:04:42;;;;;;;6.53;3.97;;;;;;;;;;5103589;28;20460;-76
2022/08/14 08:07:09;;;;;;;3.97;3.43;;;;;;;;;;5096870;28;20447;-76
2022/08/14 08:09:36;;;;;;;3.50;3.30;;;;;;;;;;5091967;28;20497;-75
2022/08/14 08:12:05;;;;;;;4.40;4.00;;;;;;;;;;5093003;28;20870;-77
2022/08/14 08:14:34;;;;;;;4.03;3.73;;;;;;;;;;5092674;28;20447;-75
2022/08/14 08:17:01;;;;;;;4.60;4.30;;;;;;;;;;5098810;28;20539;-77
2022/08/14 08:19:28;;;;;;;4.37;3.93;;;;;;;;;;5101695;28;20440;-77
2022/08/14 08:21:58;;;;;;;4.10;3.80;;;;;;;;;;5102897;28;20499;-76
2022/08/14 08:24:30;;;;;;;8.93;8.23;;;;;;;;;;5100955;28;20560;-77
2022/08/14 08:26:58;;;;;;;3.73;3.53;;;;;;;;;;5103407;28;20428;-78
2022/08/14 08:29:26;;;;;;;4.27;3.97;;;;;;;;;;5100871;28;20595;-76
2022/08/14 08:31:53;;;;;;;4.70;4.37;;;;;;;;;;5102529;28;20483;-77
2022/08/14 08:34:23;;;;;;;4.03;3.73;;;;;;;;;;5101003;28;20448;-77
2022/08/14 08:36:50;;;;;;;4.30;3.90;;;;;;;;;;5096568;28;20503;-78
2022/08/14 08:39:19;;;;;;;3.33;3.13;;;;;;;;;;5095663;28;20428;-77
2022/08/14 08:41:47;;;;;;;5.00;4.70;;;;;;;;;;5094896;28;20491;-77
2022/08/14 08:44:17;;;;;;;3.83;3.63;;;;;;;;;;5095456;28;20440;-78
2022/08/14 08:46:57;;;;;;;4.50;4.30;;;;;;;;;;5097049;28;20893;-77
2022/08/14 08:49:45;;;;;;;4.50;4.20;;;;;;;;;;5096394;28;20843;-79
2022/08/14 08:52:27;;;;;;;4.27;4.07;;;;;;;;;;5094880;28;20498;-77
2022/08/14 08:54:55;;;;;;;4.63;3.83;;;;;;;;;;5094435;28;20978;-78
2022/08/14 08:57:27;;;;;;;3.67;3.47;;;;;;;;;;5096807;28;20511;-78
2022/08/14 08:59:57;;;;;;;3.80;3.50;;;;;;;;;;5096691;28;20466;-78
2022/08/14 09:02:25;;;;;;;3.90;3.70;;;;;;;;;;5093622;28;20443;-77
2022/08/14 09:05:01;;;;;;;3.80;3.50;;;;;;;;;;5091951;28;20459;-78
2022/08/14 09:07:28;;;;;;;4.77;4.07;;;;;;;;;;5092663;28;20459;-78
2022/08/14 09:09:55;;;;;;;3.83;3.63;;;;;;;;;;5091590;28;20528;-78
2022/08/14 09:12:22;;;;;;;4.10;3.80;;;;;;;;;;5091853;28;20471;-78
2022/08/14 09:14:52;;;;;;;3.07;2.97;;;;;;;;;;5092064;28;20474;-77
2022/08/14 09:17:19;;;;;;;4.13;3.83;;;;;;;;;;5091520;28;20949;-77
2022/08/14 09:19:48;;;;;;;10.57;9.80;;;;;;;;;;5091695;28;20447;-77
2022/08/14 09:22:16;;;;;;;3.80;3.50;;;;;;;;;;5091948;28;20443;-77
2022/08/14 09:24:46;;;;;;;3.53;3.33;;;;;;;;;;5092426;28;20471;-78
2022/08/14 09:27:13;;;;;;;3.43;3.23;;;;;;;;;;5091968;28;20819;-77
2022/08/14 09:29:40;;;;;;;4.20;3.80;;;;;;;;;;5091808;28;20970;-78
2022/08/14 09:32:25;;;;;;;3.43;3.23;;;;;;;;;;5097047;28;20538;-79
2022/08/14 09:34:57;;;;;;;3.80;3.50;;;;;;;;;;5094269;28;20499;-78
2022/08/14 09:37:33;;;;;;;3.80;3.60;;;;;;;;;;5096293;28;20474;-78
2022/08/14 09:40:04;;;;;;;3.57;3.37;;;;;;;;;;5095606;28;20456;-78
2022/08/14 09:42:43;;;;;;;3.70;3.37;;;;;;;;;;5094149;28;20468;-77
2022/08/14 09:45:13;;;;;;;4.60;4.20;;;;;;;;;;5095454;28;20547;-79
2022/08/14 09:47:45;;;;;;;3.60;3.40;;;;;;;;;;5094864;28;20443;-78
2022/08/14 09:50:24;;;;;;;3.40;3.20;;;;;;;;;;5094685;28;21034;-78
2022/08/14 09:52:55;;;;;;;3.77;3.53;;;;;;;;;;5094033;28;20471;-77
2022/08/14 09:55:23;;;;;;;4.00;3.80;;;;;;;;;;5092728;28;21011;-77
2022/08/14 09:57:50;;;;;;;3.30;3.10;;;;;;;;;;5091408;28;20966;-77
2022/08/14 10:00:19;;;;;;;2.83;2.73;;;;;;;;;;5092205;28;20485;-79
2022/08/14 10:02:52;;;;;;;4.30;4.00;;;;;;;;;;5091240;28;20443;-77
2022/08/14 10:05:30;;;;;;;3.27;3.07;;;;;;;;;;5091293;28;20467;-77
2022/08/14 10:07:57;;;;;;;3.30;3.10;;;;;;;;;;5090930;28;20459;-77
2022/08/14 10:10:28;;;;;;;3.30;3.20;;;;;;;;;;5083673;28;20440;-78
2022/08/14 10:12:56;;;;;;;3.37;3.27;;;;;;;;;;5070302;28;21066;-77
2022/08/14 10:15:24;;;;;;;3.20;3.10;;;;;;;;;;5071392;28;20475;-79
2022/08/14 10:17:52;;;;;;;3.20;2.90;;;;;;;;;;5072145;28;20476;-78
2022/08/14 10:20:21;;;;;;;3.23;3.03;;;;;;;;;;5071696;28;20476;-77
2022/08/14 10:22:49;;;;;;;3.60;3.40;;;;;;;;;;5071703;28;20440;-78
2022/08/14 10:25:18;;;;;;;3.30;3.10;;;;;;;;;;5072747;28;20555;-78
2022/08/14 10:27:48;;;;;;;4.10;3.03;;;;;;;;;;5071540;28;20476;-78
2022/08/14 10:30:17;;;;;;;3.37;3.13;;;;;;;;;;5071176;28;20429;-77
2022/08/14 10:32:44;;;;;;;4.03;3.73;;;;;;;;;;5073875;28;20477;-78
2022/08/14 10:35:12;;;;;;;3.63;3.43;;;;;;;;;;5075731;28;20461;-78
2022/08/14 10:37:40;;;;;;;3.10;3.00;;;;;;;;;;5074895;28;20445;-78
2022/08/14 10:40:09;;;;;;;3.33;3.07;;;;;;;;;;5075763;28;20448;-77
2022/08/14 10:42:37;;;;;;;5.20;4.70;;;;;;;;;;5074956;28;20444;-78
2022/08/14 10:45:04;;;;;;;4.57;4.27;;;;;;;;;;5074580;28;20469;-78
2022/08/14 10:47:35;;;;;;;3.60;3.40;;;;;;;;;;5075746;28;20973;-77
2022/08/14 10:50:02;;;;;;;3.50;3.13;;;;;;;;;;5074613;28;20528;-78
2022/08/14 10:52:31;;;;;;;6.50;3.67;;;;;;;;;;5074141;28;20476;-77
2022/08/14 10:55:06;;;;;;;4.30;3.90;;;;;;;;;;5074362;28;20475;-77
2022/08/14 10:57:35;;;;;;;3.57;3.37;;;;;;;;;;5074484;28;20433;-78
2022/08/14 11:00:12;;;;;;;3.80;3.60;;;;;;;;;;5074366;28;20861;-78
2022/08/14 11:02:39;;;;;;;3.80;3.60;;;;;;;;;;5076921;28;20429;-78
2022/08/14 11:05:07;;;;;;;3.40;3.20;;;;;;;;;;5075148;28;20533;-78
2022/08/14 11:07:38;;;;;;;3.70;3.40;;;;;;;;;;5074878;28;20513;-79
2022/08/14 11:10:07;;;;;;;4.20;3.80;;;;;;;;;;5081068;28;20440;-78
2022/08/14 11:12:45;;;;;;;3.03;2.93;;;;;;;;;;5094096;28;21077;-77
2022/08/14 11:15:12;;;;;;;3.50;3.30;;;;;;;;;;5094066;28;20463;-77
2022/08/14 11:17:39;;;;;;;3.57;3.37;;;;;;;;;;5093801;28;20993;-77
2022/08/14 11:20:08;;;;;;;3.57;3.40;;;;;;;;;;5094250;28;20447;-79
2022/08/14 11:22:42;;;;;;;3.53;3.33;;;;;;;;;;5094720;28;20504;-79
2022/08/14 11:25:12;;;;;;;3.30;3.20;;;;;;;;;;5094297;28;20478;-78
2022/08/14 11:27:42;;;;;;;3.87;3.00;;;;;;;;;;5094180;28;20497;-77
2022/08/14 11:30:11;;;;;;;3.87;3.67;;;;;;;;;;5093569;28;20455;-77
2022/08/14 11:32:41;;;;;;;3.67;3.47;;;;;;;;;;5093439;28;20531;-78
2022/08/14 11:35:11;;;;;;;3.63;3.40;;;;;;;;;;5094267;28;20448;-77
2022/08/14 11:37:38;;;;;;;3.20;3.00;;;;;;;;;;5094386;28;20432;-79
2022/08/14 11:40:15;;;;;;;3.53;3.33;;;;;;;;;;5094864;28;20444;-77
2022/08/14 11:42:55;;;;;;;3.87;3.67;;;;;;;;;;5095379;28;20858;-78
2022/08/14 11:45:23;;;;;;;3.40;3.20;;;;;;;;;;5088267;28;20575;-77
2022/08/14 11:47:51;;;;;;;3.57;3.37;;;;;;;;;;5093686;28;21081;-78
2022/08/14 11:50:18;;;;;;;3.50;3.30;;;;;;;;;;5094198;28;20996;-77
2022/08/14 11:52:46;;;;;;;4.70;3.60;;;;;;;;;;5094088;28;20475;-77
2022/08/14 11:55:14;;;;;;;3.67;3.47;;;;;;;;;;5094324;28;20464;-77
2022/08/14 11:57:42;;;;;;;3.17;3.07;;;;;;;;;;5093813;28;20443;-79
2022/08/14 12:00:11;;;;;;;3.40;3.13;;;;;;;;;;5093950;28;20509;-78
2022/08/14 12:02:49;;;;;;;3.23;2.97;;;;;;;;;;5094092;28;20443;-78
2022/08/14 12:05:16;;;;;;;3.83;3.63;;;;;;;;;;5093758;28;20517;-78
2022/08/14 12:07:48;;;;;;;3.27;3.07;;;;;;;;;;5093240;28;20460;-78
2022/08/14 12:10:17;;;;;;;3.40;3.10;;;;;;;;;;5093336;28;20440;-78
2022/08/14 12:12:44;;;;;;;3.20;3.10;;;;;;;;;;5092160;28;20569;-75
2022/08/14 12:15:13;;;;;;;3.23;3.13;;;;;;;;;;5094171;28;20468;-76
2022/08/14 12:17:44;;;;;;;3.30;3.10;;;;;;;;;;5094540;28;20443;-76
2022/08/14 12:20:12;;;;;;;3.30;3.10;;;;;;;;;;5094490;28;20436;-75
2022/08/14 12:22:40;;;;;;;3.43;3.13;;;;;;;;;;5093129;28;20440;-75
2022/08/14 12:25:08;;;;;;;3.07;2.87;;;;;;;;;;5093792;28;20624;-77
2022/08/14 12:27:36;;;;;;;3.00;2.80;;;;;;;;;;5094143;28;20505;-76
2022/08/14 12:30:03;;;;;;;3.03;2.93;;;;;;;;;;5093713;28;20512;-78
2022/08/14 12:32:40;;;;;;;3.50;3.20;;;;;;;;;;5093538;28;20447;-77
2022/08/14 12:35:08;;;;;;;3.10;2.90;;;;;;;;;;5093606;28;20455;-76
2022/08/14 12:37:35;;;;;;;3.20;2.87;;;;;;;;;;5094066;28;20443;-76
2022/08/14 12:40:09;;;;;;;3.20;3.00;;;;;;;;;;5100879;28;20435;-76
2022/08/14 12:42:36;;;;;;;3.07;2.97;;;;;;;;;;5092490;28;20493;-76
2022/08/14 12:45:03;;;;;;;2.93;2.83;;;;;;;;;;5093294;28;20526;-77
2022/08/14 12:47:31;;;;;;;2.83;2.73;;;;;;;;;;5093564;28;20459;-77
2022/08/14 12:49:59;;;;;;;3.00;2.80;;;;;;;;;;5094230;28;20450;-77
2022/08/14 12:52:30;;;;;;;2.67;2.47;;;;;;;;;;5093379;28;20978;-76
2022/08/14 12:55:02;;;;;;;3.03;2.80;;;;;;;;;;5093177;28;20496;-76
2022/08/14 12:57:36;;;;;;;2.70;2.60;;;;;;;;;;5093883;28;20985;-76
2022/08/14 13:00:08;;;;;;;2.77;2.57;;;;;;;;;;5093362;28;20452;-76
2022/08/14 13:02:37;;;;;;;2.77;2.67;;;;;;;;;;5092680;28;20436;-76
2022/08/14 13:05:08;;;;;;;2.10;2.03;;;;;;;;;;5093336;28;20451;-78
2022/08/14 13:07:36;;;;;;;2.30;2.20;;;;;;;;;;5097166;28;20464;-77
2022/08/14 13:10:04;;;;;;;2.70;2.50;;;;;;;;;;5093731;28;20436;-76
2022/08/14 13:12:33;;;;;;;2.73;2.63;;;;;;;;;;5079911;28;20504;-75
2022/08/14 13:15:00;;;;;;;2.70;2.50;;;;;;;;;;5079084;28;20546;-76
2022/08/14 13:17:27;;;;;;;2.50;2.30;;;;;;;;;;5073909;28;20449;-77
2022/08/14 13:19:56;;;;;;;2.27;2.17;;;;;;;;;;5071905;28;20440;-76
2022/08/14 13:22:26;;;;;;;2.97;2.80;;;;;;;;;;5072127;28;20448;-77
2022/08/14 13:24:54;;;;;;;2.63;2.53;;;;;;;;;;5071843;28;20884;-77
2022/08/14 13:27:22;;;;;;;2.00;2.00;;;;;;;;;;5071665;28;20544;-76
2022/08/14 13:29:51;;;;;;;1.97;1.87;;;;;;;;;;5071648;28;20589;-76
2022/08/14 13:32:18;;;;;;;2.50;2.27;;;;;;;;;;5071699;28;20424;-76
2022/08/14 13:34:48;;;;;;;2.30;2.20;;;;;;;;;;5070987;28;20488;-76
2022/08/14 13:37:15;;;;;;;2.20;2.00;;;;;;;;;;5071318;28;20554;-75
2022/08/14 13:39:46;;;;;;;2.20;2.00;;;;;;;;;;5071677;28;20468;-76
2022/08/14 13:42:14;;;;;;;2.47;2.37;;;;;;;;;;5071255;28;21004;-77
2022/08/14 13:44:41;;;;;;;2.67;2.57;;;;;;;;;;5070991;28;20496;-76
2022/08/14 13:47:08;;;;;;;2.60;2.50;;;;;;;;;;5071429;28;20531;-76
2022/08/14 13:49:37;;;;;;;2.90;2.70;;;;;;;;;;5071525;28;20819;-76
2022/08/14 13:52:05;;;;;;;2.60;2.40;;;;;;;;;;5071247;28;20445;-77
2022/08/14 13:54:34;;;;;;;3.00;2.53;;;;;;;;;;5071124;28;20476;-76
2022/08/14 13:57:03;;;;;;;2.50;2.30;;;;;;;;;;5071607;28;20445;-77
2022/08/14 13:59:31;;;;;;;2.60;2.50;;;;;;;;;;5070977;28;20527;-76
2022/08/14 14:02:03;;;;;;;2.30;2.20;;;;;;;;;;5071158;28;20444;-77
2022/08/14 14:04:32;;;;;;;2.40;2.30;;;;;;;;;;5071128;28;20540;-77
2022/08/14 14:07:01;;;;;;;2.50;2.30;;;;;;;;;;5073267;28;20500;-77
2022/08/14 14:09:29;;;;;;;2.40;2.20;;;;;;;;;;5075023;28;20489;-77
2022/08/14 14:11:58;;;;;;;1.90;1.80;;;;;;;;;;5074552;28;20451;-77
2022/08/14 14:14:27;;;;;;;1.80;1.80;;;;;;;;;;5074600;28;20468;-76
2022/08/14 14:16:54;;;;;;;1.90;1.80;;;;;;;;;;5074956;28;20781;-77
2022/08/14 14:19:24;;;;;;;1.73;1.63;;;;;;;;;;5074227;28;20490;-77
2022/08/14 14:21:54;;;;;;;1.93;1.83;;;;;;;;;;5074875;28;20857;-78
2022/08/14 14:24:21;;;;;;;1.70;1.70;;;;;;;;;;5074152;28;20924;-77
2022/08/14 14:26:48;;;;;;;3.50;2.10;;;;;;;;;;5085101;28;20934;-77
2022/08/14 14:29:15;;;;;;;2.10;2.00;;;;;;;;;;5094455;28;20443;-78
2022/08/14 14:31:44;;;;;;;1.90;1.83;;;;;;;;;;5092954;28;20439;-77
2022/08/14 14:34:12;;;;;;;5.10;2.10;;;;;;;;;;5084969;28;20556;-77
2022/08/14 14:36:40;;;;;;;1.90;1.90;;;;;;;;;;5086873;28;20561;-77
2022/08/14 14:39:08;;;;;;;1.97;1.87;;;;;;;;;;5094254;28;20458;-77
2022/08/14 14:41:38;;;;;;;2.07;1.97;;;;;;;;;;5094316;28;20447;-76
2022/08/14 14:44:06;;;;;;;2.33;2.13;;;;;;;;;;5093904;28;20451;-78
2022/08/14 14:46:35;;;;;;;2.30;2.20;;;;;;;;;;5094042;28;20904;-77
2022/08/14 14:49:05;;;;;;;2.00;1.90;;;;;;;;;;5094355;28;20443;-78
2022/08/14 14:51:32;;;;;;;2.13;2.03;;;;;;;;;;5094327;28;20496;-76
2022/08/14 14:54:00;;;;;;;3.93;2.20;;;;;;;;;;5093530;28;20475;-77
2022/08/14 14:56:30;;;;;;;1.70;1.70;;;;;;;;;;5093792;28;20470;-76
2022/08/14 14:58:57;;;;;;;2.10;2.00;;;;;;;;;;5093489;28;20447;-77
2022/08/14 15:01:24;;;;;;;2.23;2.20;;;;;;;;;;5093733;28;20442;-77
2022/08/14 15:03:53;;;;;;;2.30;2.20;;;;;;;;;;5093835;28;20439;-77
2022/08/14 15:06:22;;;;;;;2.60;2.30;;;;;;;;;;5093542;28;20562;-77
2022/08/14 15:08:51;;;;;;;2.40;2.20;;;;;;;;;;5093932;28;20447;-77